sensor_id;sensor_type;location;lat;lon;timestamp;P1;durP1;ratioP1;P2;durP2;ratioP2
65049;SDS011;52090;51.224;-2.328;2022-12-18T00:00:57;44.33;;;25.23;;
65049;SDS011;52090;51.224;-2.328;2022-12-18T00:04:38;43.45;;;24.63;;
65049;SDS011;52090;51.224;-2.328;2022-12-18T00:08:20;43.67;;;24.65;;
65049;SDS011;52090;51.224;-2.328;2022-12-18T00:12:02;34.55;;;22.20;;
65049;SDS011;52090;51.224;-2.328;2022-12-18T00:16:00;24.70;;;15.30;;
65049;SDS011;52090;51.224;-2.328;2022-12-18T00:19:46;19.50;;;13.82;;
65049;SDS011;52090;51.224;-2.328;2022-12-18T00:23:28;16.27;;;13.40;;
65049;SDS011;52090;51.224;-2.328;2022-12-18T00:27:11;18.85;;;11.90;;
65049;SDS011;52090;51.224;-2.328;2022-12-18T00:31:02;23.23;;;15.20;;
65049;SDS011;52090;51.224;-2.328;2022-12-18T00:34:48;25.77;;;18.20;;
65049;SDS011;52090;51.224;-2.328;2022-12-18T00:38:30;33.47;;;21.58;;
65049;SDS011;52090;51.224;-2.328;2022-12-18T00:42:12;29.48;;;19.88;;
65049;SDS011;52090;51.224;-2.328;2022-12-18T00:46:12;25.83;;;15.30;;
65049;SDS011;52090;51.224;-2.328;2022-12-18T00:49:54;21.38;;;13.73;;
65049;SDS011;52090;51.224;-2.328;2022-12-18T00:53:36;16.85;;;12.35;;
65049;SDS011;52090;51.224;-2.328;2022-12-18T00:57:18;18.73;;;12.90;;
65049;SDS011;52090;51.224;-2.328;2022-12-18T01:01:00;17.58;;;12.38;;
65049;SDS011;52090;51.224;-2.328;2022-12-18T01:04:42;18.35;;;11.13;;
65049;SDS011;52090;51.224;-2.328;2022-12-18T01:08:24;14.13;;;9.20;;
65049;SDS011;52090;51.224;-2.328;2022-12-18T01:12:06;18.30;;;10.82;;
65049;SDS011;52090;51.224;-2.328;2022-12-18T01:15:48;16.05;;;10.13;;
65049;SDS011;52090;51.224;-2.328;2022-12-18T01:19:30;16.33;;;10.00;;
65049;SDS011;52090;51.224;-2.328;2022-12-18T01:23:13;11.73;;;8.32;;
65049;SDS011;52090;51.224;-2.328;2022-12-18T01:26:54;16.15;;;8.75;;
65049;SDS011;52090;51.224;-2.328;2022-12-18T01:34:19;14.10;;;8.63;;
65049;SDS011;52090;51.224;-2.328;2022-12-18T01:38:01;14.02;;;8.73;;
65049;SDS011;52090;51.224;-2.328;2022-12-18T01:41:43;18.05;;;9.65;;
65049;SDS011;52090;51.224;-2.328;2022-12-18T01:45:44;15.73;;;8.88;;
65049;SDS011;52090;51.224;-2.328;2022-12-18T01:49:25;16.13;;;8.63;;
65049;SDS011;52090;51.224;-2.328;2022-12-18T01:53:17;13.30;;;8.10;;
65049;SDS011;52090;51.224;-2.328;2022-12-18T01:57:02;13.02;;;7.90;;
65049;SDS011;52090;51.224;-2.328;2022-12-18T02:00:44;19.50;;;13.38;;
65049;SDS011;52090;51.224;-2.328;2022-12-18T02:04:26;23.13;;;13.93;;
65049;SDS011;52090;51.224;-2.328;2022-12-18T02:08:10;13.32;;;9.32;;
65049;SDS011;52090;51.224;-2.328;2022-12-18T02:12:00;21.10;;;13.30;;
65049;SDS011;52090;51.224;-2.328;2022-12-18T02:15:57;33.05;;;19.42;;
65049;SDS011;52090;51.224;-2.328;2022-12-18T02:27:43;16.83;;;10.15;;
65049;SDS011;52090;51.224;-2.328;2022-12-18T02:31:28;17.73;;;10.48;;
65049;SDS011;52090;51.224;-2.328;2022-12-18T02:35:17;18.40;;;10.60;;
65049;SDS011;52090;51.224;-2.328;2022-12-18T02:39:03;16.70;;;8.73;;
65049;SDS011;52090;51.224;-2.328;2022-12-18T02:42:49;14.15;;;8.60;;
65049;SDS011;52090;51.224;-2.328;2022-12-18T02:46:32;15.32;;;8.93;;
65049;SDS011;52090;51.224;-2.328;2022-12-18T02:50:30;18.80;;;8.48;;
65049;SDS011;52090;51.224;-2.328;2022-12-18T02:54:21;15.63;;;8.63;;
65049;SDS011;52090;51.224;-2.328;2022-12-18T02:58:21;15.52;;;8.15;;
65049;SDS011;52090;51.224;-2.328;2022-12-18T03:02:26;15.38;;;9.93;;
65049;SDS011;52090;51.224;-2.328;2022-12-18T03:06:59;17.10;;;10.40;;
65049;SDS011;52090;51.224;-2.328;2022-12-18T03:10:29;12.68;;;8.07;;
65049;SDS011;52090;51.224;-2.328;2022-12-18T03:14:13;15.65;;;10.05;;
65049;SDS011;52090;51.224;-2.328;2022-12-18T03:18:04;12.90;;;8.15;;
65049;SDS011;52090;51.224;-2.328;2022-12-18T03:21:51;15.15;;;8.77;;
65049;SDS011;52090;51.224;-2.328;2022-12-18T03:25:37;14.93;;;10.05;;
65049;SDS011;52090;51.224;-2.328;2022-12-18T03:29:38;15.00;;;9.00;;
65049;SDS011;52090;51.224;-2.328;2022-12-18T03:33:25;11.32;;;7.78;;
65049;SDS011;52090;51.224;-2.328;2022-12-18T03:37:37;17.48;;;10.18;;
65049;SDS011;52090;51.224;-2.328;2022-12-18T03:41:23;12.65;;;7.85;;
65049;SDS011;52090;51.224;-2.328;2022-12-18T03:52:57;12.77;;;8.32;;
65049;SDS011;52090;51.224;-2.328;2022-12-18T03:56:51;15.95;;;8.88;;
65049;SDS011;52090;51.224;-2.328;2022-12-18T04:00:39;14.33;;;8.07;;
65049;SDS011;52090;51.224;-2.328;2022-12-18T04:04:22;14.70;;;9.00;;
65049;SDS011;52090;51.224;-2.328;2022-12-18T04:08:06;12.70;;;7.95;;
65049;SDS011;52090;51.224;-2.328;2022-12-18T04:11:48;16.77;;;8.80;;
65049;SDS011;52090;51.224;-2.328;2022-12-18T04:15:31;13.93;;;8.18;;
65049;SDS011;52090;51.224;-2.328;2022-12-18T04:19:15;17.33;;;8.82;;
65049;SDS011;52090;51.224;-2.328;2022-12-18T04:22:58;14.45;;;8.65;;
65049;SDS011;52090;51.224;-2.328;2022-12-18T04:26:39;14.13;;;8.48;;
65049;SDS011;52090;51.224;-2.328;2022-12-18T04:30:21;17.15;;;8.05;;
65049;SDS011;52090;51.224;-2.328;2022-12-18T04:34:03;14.88;;;8.38;;
65049;SDS011;52090;51.224;-2.328;2022-12-18T04:37:45;15.93;;;8.50;;
65049;SDS011;52090;51.224;-2.328;2022-12-18T04:41:26;12.02;;;7.45;;
65049;SDS011;52090;51.224;-2.328;2022-12-18T04:45:08;15.10;;;8.98;;
65049;SDS011;52090;51.224;-2.328;2022-12-18T04:48:50;16.65;;;9.35;;
65049;SDS011;52090;51.224;-2.328;2022-12-18T04:52:32;15.48;;;8.85;;
65049;SDS011;52090;51.224;-2.328;2022-12-18T04:56:14;16.30;;;8.38;;
65049;SDS011;52090;51.224;-2.328;2022-12-18T04:59:57;14.70;;;8.18;;
65049;SDS011;52090;51.224;-2.328;2022-12-18T05:03:39;11.93;;;7.90;;
65049;SDS011;52090;51.224;-2.328;2022-12-18T05:07:21;15.20;;;7.53;;
65049;SDS011;52090;51.224;-2.328;2022-12-18T05:11:07;16.83;;;8.63;;
65049;SDS011;52090;51.224;-2.328;2022-12-18T05:14:51;15.80;;;9.25;;
65049;SDS011;52090;51.224;-2.328;2022-12-18T05:18:33;13.15;;;7.72;;
65049;SDS011;52090;51.224;-2.328;2022-12-18T05:22:15;15.38;;;8.82;;
65049;SDS011;52090;51.224;-2.328;2022-12-18T05:25:58;17.50;;;8.85;;
65049;SDS011;52090;51.224;-2.328;2022-12-18T05:29:41;15.70;;;9.00;;
65049;SDS011;52090;51.224;-2.328;2022-12-18T05:33:24;21.50;;;9.70;;
65049;SDS011;52090;51.224;-2.328;2022-12-18T05:37:07;17.70;;;9.23;;
65049;SDS011;52090;51.224;-2.328;2022-12-18T05:40:49;37.63;;;19.30;;
65049;SDS011;52090;51.224;-2.328;2022-12-18T05:44:31;21.90;;;11.93;;
65049;SDS011;52090;51.224;-2.328;2022-12-18T05:48:13;28.92;;;12.30;;
65049;SDS011;52090;51.224;-2.328;2022-12-18T05:51:55;26.48;;;12.40;;
65049;SDS011;52090;51.224;-2.328;2022-12-18T05:55:38;37.40;;;18.80;;
65049;SDS011;52090;51.224;-2.328;2022-12-18T05:59:20;27.38;;;13.38;;
65049;SDS011;52090;51.224;-2.328;2022-12-18T06:03:02;52.42;;;23.75;;
65049;SDS011;52090;51.224;-2.328;2022-12-18T06:06:44;70.25;;;35.42;;
65049;SDS011;52090;51.224;-2.328;2022-12-18T06:10:26;38.30;;;19.60;;
65049;SDS011;52090;51.224;-2.328;2022-12-18T06:14:08;39.47;;;20.73;;
65049;SDS011;52090;51.224;-2.328;2022-12-18T06:17:50;22.40;;;12.43;;
65049;SDS011;52090;51.224;-2.328;2022-12-18T06:21:32;35.50;;;19.38;;
65049;SDS011;52090;51.224;-2.328;2022-12-18T06:25:15;24.63;;;13.30;;
65049;SDS011;52090;51.224;-2.328;2022-12-18T06:28:57;22.05;;;13.68;;
65049;SDS011;52090;51.224;-2.328;2022-12-18T06:32:39;26.23;;;14.10;;
65049;SDS011;52090;51.224;-2.328;2022-12-18T06:36:20;21.92;;;12.88;;
65049;SDS011;52090;51.224;-2.328;2022-12-18T06:40:02;22.95;;;11.73;;
65049;SDS011;52090;51.224;-2.328;2022-12-18T06:43:45;23.08;;;13.55;;
65049;SDS011;52090;51.224;-2.328;2022-12-18T06:47:26;24.02;;;11.70;;
65049;SDS011;52090;51.224;-2.328;2022-12-18T06:51:09;17.10;;;11.50;;
65049;SDS011;52090;51.224;-2.328;2022-12-18T06:54:50;22.33;;;12.05;;
65049;SDS011;52090;51.224;-2.328;2022-12-18T06:58:32;22.67;;;13.25;;
65049;SDS011;52090;51.224;-2.328;2022-12-18T07:02:14;19.70;;;11.05;;
65049;SDS011;52090;51.224;-2.328;2022-12-18T07:05:56;21.10;;;12.68;;
65049;SDS011;52090;51.224;-2.328;2022-12-18T07:09:38;20.23;;;10.68;;
65049;SDS011;52090;51.224;-2.328;2022-12-18T07:13:20;21.70;;;11.52;;
65049;SDS011;52090;51.224;-2.328;2022-12-18T07:17:01;21.90;;;11.32;;
65049;SDS011;52090;51.224;-2.328;2022-12-18T07:20:43;18.92;;;9.48;;
65049;SDS011;52090;51.224;-2.328;2022-12-18T07:24:26;23.40;;;11.43;;
65049;SDS011;52090;51.224;-2.328;2022-12-18T07:28:07;18.52;;;10.38;;
65049;SDS011;52090;51.224;-2.328;2022-12-18T07:31:57;19.10;;;10.85;;
65049;SDS011;52090;51.224;-2.328;2022-12-18T07:35:39;20.98;;;11.18;;
65049;SDS011;52090;51.224;-2.328;2022-12-18T07:39:20;18.00;;;10.27;;
65049;SDS011;52090;51.224;-2.328;2022-12-18T07:43:02;19.77;;;9.77;;
65049;SDS011;52090;51.224;-2.328;2022-12-18T07:46:44;19.02;;;11.50;;
65049;SDS011;52090;51.224;-2.328;2022-12-18T07:50:26;18.90;;;10.23;;
65049;SDS011;52090;51.224;-2.328;2022-12-18T07:54:07;17.48;;;10.20;;
65049;SDS011;52090;51.224;-2.328;2022-12-18T07:57:49;17.05;;;8.88;;
65049;SDS011;52090;51.224;-2.328;2022-12-18T08:01:36;17.13;;;9.70;;
65049;SDS011;52090;51.224;-2.328;2022-12-18T08:05:18;15.38;;;9.07;;
65049;SDS011;52090;51.224;-2.328;2022-12-18T08:09:01;18.48;;;10.88;;
65049;SDS011;52090;51.224;-2.328;2022-12-18T08:12:43;15.77;;;8.98;;
65049;SDS011;52090;51.224;-2.328;2022-12-18T08:16:26;18.38;;;9.50;;
65049;SDS011;52090;51.224;-2.328;2022-12-18T08:20:08;15.35;;;9.63;;
65049;SDS011;52090;51.224;-2.328;2022-12-18T08:23:50;18.15;;;8.85;;
65049;SDS011;52090;51.224;-2.328;2022-12-18T08:27:33;15.23;;;9.75;;
65049;SDS011;52090;51.224;-2.328;2022-12-18T08:31:15;19.42;;;11.13;;
65049;SDS011;52090;51.224;-2.328;2022-12-18T08:34:57;17.42;;;9.30;;
65049;SDS011;52090;51.224;-2.328;2022-12-18T08:38:39;22.75;;;11.05;;
65049;SDS011;52090;51.224;-2.328;2022-12-18T08:42:21;17.10;;;9.27;;
65049;SDS011;52090;51.224;-2.328;2022-12-18T08:46:23;18.52;;;10.90;;
65049;SDS011;52090;51.224;-2.328;2022-12-18T08:50:09;19.13;;;11.07;;
65049;SDS011;52090;51.224;-2.328;2022-12-18T08:53:52;18.25;;;10.05;;
65049;SDS011;52090;51.224;-2.328;2022-12-18T08:57:33;17.67;;;10.35;;
65049;SDS011;52090;51.224;-2.328;2022-12-18T09:01:15;17.40;;;10.13;;
65049;SDS011;52090;51.224;-2.328;2022-12-18T09:04:57;18.88;;;9.98;;
65049;SDS011;52090;51.224;-2.328;2022-12-18T09:08:39;16.58;;;10.73;;
65049;SDS011;52090;51.224;-2.328;2022-12-18T09:12:21;15.63;;;9.52;;
65049;SDS011;52090;51.224;-2.328;2022-12-18T09:16:03;20.60;;;11.57;;
65049;SDS011;52090;51.224;-2.328;2022-12-18T09:19:45;28.60;;;14.02;;
65049;SDS011;52090;51.224;-2.328;2022-12-18T09:23:27;20.73;;;11.18;;
65049;SDS011;52090;51.224;-2.328;2022-12-18T09:27:09;17.52;;;10.57;;
65049;SDS011;52090;51.224;-2.328;2022-12-18T09:30:50;19.73;;;11.63;;
65049;SDS011;52090;51.224;-2.328;2022-12-18T09:34:32;18.90;;;10.20;;
65049;SDS011;52090;51.224;-2.328;2022-12-18T09:38:15;20.92;;;11.80;;
65049;SDS011;52090;51.224;-2.328;2022-12-18T09:41:58;20.05;;;11.20;;
65049;SDS011;52090;51.224;-2.328;2022-12-18T09:45:42;18.40;;;11.52;;
65049;SDS011;52090;51.224;-2.328;2022-12-18T09:49:29;20.83;;;13.05;;
65049;SDS011;52090;51.224;-2.328;2022-12-18T09:53:15;24.20;;;12.75;;
65049;SDS011;52090;51.224;-2.328;2022-12-18T09:57:02;21.15;;;13.07;;
65049;SDS011;52090;51.224;-2.328;2022-12-18T10:00:45;19.60;;;11.90;;
65049;SDS011;52090;51.224;-2.328;2022-12-18T10:04:27;22.75;;;12.07;;
65049;SDS011;52090;51.224;-2.328;2022-12-18T10:08:17;21.27;;;12.77;;
65049;SDS011;52090;51.224;-2.328;2022-12-18T10:28:27;23.55;;;13.95;;
65049;SDS011;52090;51.224;-2.328;2022-12-18T10:32:16;19.98;;;12.52;;
65049;SDS011;52090;51.224;-2.328;2022-12-18T10:36:00;22.33;;;14.82;;
65049;SDS011;52090;51.224;-2.328;2022-12-18T10:39:42;24.45;;;14.27;;
65049;SDS011;52090;51.224;-2.328;2022-12-18T10:43:25;21.80;;;12.60;;
65049;SDS011;52090;51.224;-2.328;2022-12-18T10:47:11;23.35;;;13.18;;
65049;SDS011;52090;51.224;-2.328;2022-12-18T10:50:56;24.13;;;14.65;;
65049;SDS011;52090;51.224;-2.328;2022-12-18T10:54:57;20.45;;;12.30;;
65049;SDS011;52090;51.224;-2.328;2022-12-18T10:58:43;21.95;;;12.63;;
65049;SDS011;52090;51.224;-2.328;2022-12-18T11:02:40;23.70;;;12.50;;
65049;SDS011;52090;51.224;-2.328;2022-12-18T11:06:23;19.33;;;12.23;;
65049;SDS011;52090;51.224;-2.328;2022-12-18T11:14:06;19.05;;;12.40;;
65049;SDS011;52090;51.224;-2.328;2022-12-18T11:17:56;23.23;;;13.45;;
65049;SDS011;52090;51.224;-2.328;2022-12-18T11:21:41;24.38;;;12.30;;
65049;SDS011;52090;51.224;-2.328;2022-12-18T11:25:23;19.52;;;10.50;;
65049;SDS011;52090;51.224;-2.328;2022-12-18T11:29:17;17.95;;;12.43;;
65049;SDS011;52090;51.224;-2.328;2022-12-18T11:33:08;21.60;;;13.60;;
65049;SDS011;52090;51.224;-2.328;2022-12-18T11:36:51;16.52;;;10.90;;
65049;SDS011;52090;51.224;-2.328;2022-12-18T11:40:37;20.10;;;11.82;;
65049;SDS011;52090;51.224;-2.328;2022-12-18T11:44:25;19.73;;;11.50;;
65049;SDS011;52090;51.224;-2.328;2022-12-18T11:48:14;17.10;;;11.10;;
65049;SDS011;52090;51.224;-2.328;2022-12-18T11:55:49;18.92;;;10.93;;
65049;SDS011;52090;51.224;-2.328;2022-12-18T12:03:39;14.05;;;9.00;;
65049;SDS011;52090;51.224;-2.328;2022-12-18T12:11:41;11.82;;;8.18;;
65049;SDS011;52090;51.224;-2.328;2022-12-18T12:23:29;10.23;;;6.72;;
65049;SDS011;52090;51.224;-2.328;2022-12-18T12:32:11;9.63;;;7.03;;
65049;SDS011;52090;51.224;-2.328;2022-12-18T12:36:41;10.20;;;7.25;;
65049;SDS011;52090;51.224;-2.328;2022-12-18T12:40:52;9.45;;;6.85;;
65049;SDS011;52090;51.224;-2.328;2022-12-18T12:44:47;7.70;;;5.38;;
65049;SDS011;52090;51.224;-2.328;2022-12-18T12:56:22;6.80;;;4.72;;
65049;SDS011;52090;51.224;-2.328;2022-12-18T13:00:09;5.97;;;4.25;;
65049;SDS011;52090;51.224;-2.328;2022-12-18T13:07:37;8.93;;;6.18;;
65049;SDS011;52090;51.224;-2.328;2022-12-18T13:11:45;7.18;;;5.82;;
65049;SDS011;52090;51.224;-2.328;2022-12-18T13:16:05;15.40;;;13.80;;
65049;SDS011;52090;51.224;-2.328;2022-12-18T13:23:51;4.97;;;4.47;;
65049;SDS011;52090;51.224;-2.328;2022-12-18T13:47:04;3.47;;;2.53;;
65049;SDS011;52090;51.224;-2.328;2022-12-18T13:50:52;3.60;;;2.47;;
65049;SDS011;52090;51.224;-2.328;2022-12-18T13:54:57;4.32;;;2.95;;
65049;SDS011;52090;51.224;-2.328;2022-12-18T13:58:42;3.58;;;2.83;;
65049;SDS011;52090;51.224;-2.328;2022-12-18T14:02:26;4.20;;;2.33;;
65049;SDS011;52090;51.224;-2.328;2022-12-18T14:06:13;4.45;;;3.28;;
65049;SDS011;52090;51.224;-2.328;2022-12-18T14:09:55;5.78;;;3.25;;
65049;SDS011;52090;51.224;-2.328;2022-12-18T14:13:59;7.32;;;4.22;;
65049;SDS011;52090;51.224;-2.328;2022-12-18T14:17:42;8.77;;;3.97;;
65049;SDS011;52090;51.224;-2.328;2022-12-18T14:21:27;7.57;;;3.95;;
65049;SDS011;52090;51.224;-2.328;2022-12-18T14:29:39;9.40;;;5.25;;
65049;SDS011;52090;51.224;-2.328;2022-12-18T14:33:17;4.70;;;3.20;;
65049;SDS011;52090;51.224;-2.328;2022-12-18T14:37:03;4.75;;;3.25;;
65049;SDS011;52090;51.224;-2.328;2022-12-18T14:40:46;4.57;;;3.50;;
65049;SDS011;52090;51.224;-2.328;2022-12-18T14:44:28;3.90;;;2.80;;
65049;SDS011;52090;51.224;-2.328;2022-12-18T14:48:37;4.53;;;2.95;;
65049;SDS011;52090;51.224;-2.328;2022-12-18T14:52:26;3.78;;;2.80;;
65049;SDS011;52090;51.224;-2.328;2022-12-18T14:56:13;4.07;;;2.78;;
65049;SDS011;52090;51.224;-2.328;2022-12-18T15:00:04;4.82;;;2.75;;
65049;SDS011;52090;51.224;-2.328;2022-12-18T15:03:48;5.30;;;3.85;;
65049;SDS011;52090;51.224;-2.328;2022-12-18T15:07:43;4.88;;;2.88;;
65049;SDS011;52090;51.224;-2.328;2022-12-18T15:11:43;5.15;;;3.35;;
65049;SDS011;52090;51.224;-2.328;2022-12-18T15:19:18;6.78;;;4.03;;
65049;SDS011;52090;51.224;-2.328;2022-12-18T15:23:01;5.47;;;3.85;;
65049;SDS011;52090;51.224;-2.328;2022-12-18T15:26:43;5.40;;;3.03;;
65049;SDS011;52090;51.224;-2.328;2022-12-18T15:30:25;6.50;;;2.97;;
65049;SDS011;52090;51.224;-2.328;2022-12-18T15:34:17;7.40;;;4.43;;
65049;SDS011;52090;51.224;-2.328;2022-12-18T15:38:02;4.20;;;3.35;;
65049;SDS011;52090;51.224;-2.328;2022-12-18T15:41:44;3.72;;;2.92;;
65049;SDS011;52090;51.224;-2.328;2022-12-18T15:45:46;5.50;;;3.15;;
65049;SDS011;52090;51.224;-2.328;2022-12-18T15:49:27;3.35;;;2.72;;
65049;SDS011;52090;51.224;-2.328;2022-12-18T15:53:09;6.40;;;4.15;;
65049;SDS011;52090;51.224;-2.328;2022-12-18T15:56:51;4.53;;;2.92;;
65049;SDS011;52090;51.224;-2.328;2022-12-18T16:00:51;9.82;;;3.65;;
65049;SDS011;52090;51.224;-2.328;2022-12-18T16:04:33;5.30;;;2.75;;
65049;SDS011;52090;51.224;-2.328;2022-12-18T16:08:15;5.53;;;2.92;;
65049;SDS011;52090;51.224;-2.328;2022-12-18T16:11:57;3.83;;;2.20;;
65049;SDS011;52090;51.224;-2.328;2022-12-18T16:15:41;3.47;;;2.67;;
65049;SDS011;52090;51.224;-2.328;2022-12-18T16:19:23;4.65;;;3.03;;
65049;SDS011;52090;51.224;-2.328;2022-12-18T16:23:06;5.93;;;3.63;;
65049;SDS011;52090;51.224;-2.328;2022-12-18T16:26:48;14.85;;;9.07;;
65049;SDS011;52090;51.224;-2.328;2022-12-18T16:30:32;13.32;;;7.50;;
65049;SDS011;52090;51.224;-2.328;2022-12-18T16:34:20;7.90;;;5.20;;
65049;SDS011;52090;51.224;-2.328;2022-12-18T16:38:10;21.52;;;9.98;;
65049;SDS011;52090;51.224;-2.328;2022-12-18T16:41:51;10.15;;;6.30;;
65049;SDS011;52090;51.224;-2.328;2022-12-18T16:45:34;14.68;;;7.82;;
65049;SDS011;52090;51.224;-2.328;2022-12-18T16:49:16;53.63;;;26.77;;
65049;SDS011;52090;51.224;-2.328;2022-12-18T16:56:41;10.13;;;5.75;;
65049;SDS011;52090;51.224;-2.328;2022-12-18T17:00:23;21.00;;;14.50;;
65049;SDS011;52090;51.224;-2.328;2022-12-18T17:04:05;7.90;;;6.25;;
65049;SDS011;52090;51.224;-2.328;2022-12-18T17:07:46;21.67;;;14.20;;
65049;SDS011;52090;51.224;-2.328;2022-12-18T17:11:30;24.52;;;17.58;;
65049;SDS011;52090;51.224;-2.328;2022-12-18T17:15:13;10.13;;;7.40;;
65049;SDS011;52090;51.224;-2.328;2022-12-18T17:18:55;11.07;;;8.13;;
65049;SDS011;52090;51.224;-2.328;2022-12-18T17:22:36;9.38;;;7.57;;
65049;SDS011;52090;51.224;-2.328;2022-12-18T17:26:18;6.45;;;4.40;;
65049;SDS011;52090;51.224;-2.328;2022-12-18T17:30:00;8.45;;;4.63;;
65049;SDS011;52090;51.224;-2.328;2022-12-18T17:33:42;5.60;;;4.32;;
65049;SDS011;52090;51.224;-2.328;2022-12-18T17:37:24;9.60;;;7.33;;
65049;SDS011;52090;51.224;-2.328;2022-12-18T17:41:07;9.38;;;6.40;;
65049;SDS011;52090;51.224;-2.328;2022-12-18T17:48:32;8.32;;;6.13;;
65049;SDS011;52090;51.224;-2.328;2022-12-18T17:52:14;7.50;;;5.05;;
65049;SDS011;52090;51.224;-2.328;2022-12-18T17:55:56;7.82;;;4.50;;
65049;SDS011;52090;51.224;-2.328;2022-12-18T17:59:41;7.45;;;4.40;;
65049;SDS011;52090;51.224;-2.328;2022-12-18T18:03:23;6.85;;;3.90;;
65049;SDS011;52090;51.224;-2.328;2022-12-18T18:07:05;7.27;;;4.60;;
65049;SDS011;52090;51.224;-2.328;2022-12-18T18:10:47;5.72;;;4.10;;
65049;SDS011;52090;51.224;-2.328;2022-12-18T18:14:29;7.30;;;4.35;;
65049;SDS011;52090;51.224;-2.328;2022-12-18T18:18:11;6.07;;;4.25;;
65049;SDS011;52090;51.224;-2.328;2022-12-18T18:21:55;8.18;;;5.78;;
65049;SDS011;52090;51.224;-2.328;2022-12-18T18:25:37;7.13;;;5.30;;
65049;SDS011;52090;51.224;-2.328;2022-12-18T18:29:22;6.80;;;5.15;;
65049;SDS011;52090;51.224;-2.328;2022-12-18T18:33:07;6.80;;;4.63;;
65049;SDS011;52090;51.224;-2.328;2022-12-18T18:36:52;5.45;;;4.10;;
65049;SDS011;52090;51.224;-2.328;2022-12-18T18:40:36;7.18;;;6.47;;
65049;SDS011;52090;51.224;-2.328;2022-12-18T18:44:19;10.02;;;4.38;;
65049;SDS011;52090;51.224;-2.328;2022-12-18T18:48:06;5.68;;;4.00;;
65049;SDS011;52090;51.224;-2.328;2022-12-18T18:51:48;5.05;;;3.47;;
65049;SDS011;52090;51.224;-2.328;2022-12-18T18:55:31;4.90;;;3.22;;
65049;SDS011;52090;51.224;-2.328;2022-12-18T18:59:13;5.05;;;3.78;;
65049;SDS011;52090;51.224;-2.328;2022-12-18T19:02:55;6.32;;;4.07;;
65049;SDS011;52090;51.224;-2.328;2022-12-18T19:06:41;8.35;;;5.32;;
65049;SDS011;52090;51.224;-2.328;2022-12-18T19:10:24;6.25;;;4.50;;
65049;SDS011;52090;51.224;-2.328;2022-12-18T19:14:07;6.82;;;4.25;;
65049;SDS011;52090;51.224;-2.328;2022-12-18T19:17:50;8.15;;;5.50;;
65049;SDS011;52090;51.224;-2.328;2022-12-18T19:21:33;6.20;;;4.17;;
65049;SDS011;52090;51.224;-2.328;2022-12-18T19:25:15;5.17;;;3.50;;
65049;SDS011;52090;51.224;-2.328;2022-12-18T19:29:07;4.47;;;3.05;;
65049;SDS011;52090;51.224;-2.328;2022-12-18T19:32:49;6.53;;;4.68;;
65049;SDS011;52090;51.224;-2.328;2022-12-18T19:36:31;4.20;;;2.97;;
65049;SDS011;52090;51.224;-2.328;2022-12-18T19:40:14;4.97;;;2.70;;
65049;SDS011;52090;51.224;-2.328;2022-12-18T19:43:56;7.53;;;3.75;;
65049;SDS011;52090;51.224;-2.328;2022-12-18T19:47:38;5.53;;;3.30;;
65049;SDS011;52090;51.224;-2.328;2022-12-18T19:58:45;4.82;;;2.65;;
65049;SDS011;52090;51.224;-2.328;2022-12-18T20:02:28;9.80;;;5.80;;
65049;SDS011;52090;51.224;-2.328;2022-12-18T20:06:12;5.97;;;3.72;;
65049;SDS011;52090;51.224;-2.328;2022-12-18T20:13:58;5.65;;;3.85;;
65049;SDS011;52090;51.224;-2.328;2022-12-18T20:17:40;3.67;;;2.30;;
65049;SDS011;52090;51.224;-2.328;2022-12-18T20:21:22;4.18;;;3.03;;
65049;SDS011;52090;51.224;-2.328;2022-12-18T20:25:05;4.50;;;2.35;;
65049;SDS011;52090;51.224;-2.328;2022-12-18T20:28:47;3.30;;;2.15;;
65049;SDS011;52090;51.224;-2.328;2022-12-18T20:32:29;3.50;;;2.17;;
65049;SDS011;52090;51.224;-2.328;2022-12-18T20:36:18;4.28;;;2.88;;
65049;SDS011;52090;51.224;-2.328;2022-12-18T20:40:03;5.80;;;4.25;;
65049;SDS011;52090;51.224;-2.328;2022-12-18T20:43:46;9.27;;;6.50;;
65049;SDS011;52090;51.224;-2.328;2022-12-18T20:47:28;4.35;;;2.90;;
65049;SDS011;52090;51.224;-2.328;2022-12-18T20:51:11;4.78;;;3.67;;
65049;SDS011;52090;51.224;-2.328;2022-12-18T20:54:55;6.28;;;4.88;;
65049;SDS011;52090;51.224;-2.328;2022-12-18T21:02:20;3.67;;;2.90;;
65049;SDS011;52090;51.224;-2.328;2022-12-18T21:06:02;5.47;;;4.60;;
65049;SDS011;52090;51.224;-2.328;2022-12-18T21:09:48;5.03;;;2.80;;
65049;SDS011;52090;51.224;-2.328;2022-12-18T21:13:31;6.28;;;3.95;;
65049;SDS011;52090;51.224;-2.328;2022-12-18T21:17:13;8.93;;;3.55;;
65049;SDS011;52090;51.224;-2.328;2022-12-18T21:20:58;6.78;;;4.00;;
65049;SDS011;52090;51.224;-2.328;2022-12-18T21:24:40;5.38;;;3.88;;
65049;SDS011;52090;51.224;-2.328;2022-12-18T21:28:23;7.72;;;4.13;;
65049;SDS011;52090;51.224;-2.328;2022-12-18T21:32:04;6.15;;;3.90;;
65049;SDS011;52090;51.224;-2.328;2022-12-18T21:35:49;7.82;;;4.00;;
65049;SDS011;52090;51.224;-2.328;2022-12-18T21:39:38;9.02;;;4.40;;
65049;SDS011;52090;51.224;-2.328;2022-12-18T21:43:21;10.80;;;4.10;;
65049;SDS011;52090;51.224;-2.328;2022-12-18T21:47:21;11.55;;;3.97;;
65049;SDS011;52090;51.224;-2.328;2022-12-18T21:51:04;8.40;;;3.50;;
65049;SDS011;52090;51.224;-2.328;2022-12-18T21:54:48;8.07;;;3.80;;
65049;SDS011;52090;51.224;-2.328;2022-12-18T21:58:30;7.25;;;3.08;;
65049;SDS011;52090;51.224;-2.328;2022-12-18T22:02:19;10.60;;;3.87;;
65049;SDS011;52090;51.224;-2.328;2022-12-18T22:06:02;6.22;;;2.90;;
65049;SDS011;52090;51.224;-2.328;2022-12-18T22:09:49;5.55;;;3.28;;
65049;SDS011;52090;51.224;-2.328;2022-12-18T22:13:31;6.03;;;3.70;;
65049;SDS011;52090;51.224;-2.328;2022-12-18T22:17:13;5.63;;;2.60;;
65049;SDS011;52090;51.224;-2.328;2022-12-18T22:20:59;6.00;;;2.70;;
65049;SDS011;52090;51.224;-2.328;2022-12-18T22:24:45;6.45;;;3.17;;
65049;SDS011;52090;51.224;-2.328;2022-12-18T22:28:27;4.70;;;2.65;;
65049;SDS011;52090;51.224;-2.328;2022-12-18T22:32:27;4.88;;;2.38;;
65049;SDS011;52090;51.224;-2.328;2022-12-18T22:36:12;5.60;;;2.72;;
65049;SDS011;52090;51.224;-2.328;2022-12-18T22:40:03;5.63;;;2.33;;
65049;SDS011;52090;51.224;-2.328;2022-12-18T22:43:47;7.43;;;2.47;;
65049;SDS011;52090;51.224;-2.328;2022-12-18T22:47:29;8.30;;;3.20;;
65049;SDS011;52090;51.224;-2.328;2022-12-18T22:51:14;3.63;;;2.30;;
65049;SDS011;52090;51.224;-2.328;2022-12-18T22:54:58;3.85;;;2.00;;
65049;SDS011;52090;51.224;-2.328;2022-12-18T22:58:42;4.45;;;2.10;;
65049;SDS011;52090;51.224;-2.328;2022-12-18T23:02:27;4.50;;;2.00;;
65049;SDS011;52090;51.224;-2.328;2022-12-18T23:06:09;4.32;;;2.50;;
65049;SDS011;52090;51.224;-2.328;2022-12-18T23:09:53;4.20;;;1.95;;
65049;SDS011;52090;51.224;-2.328;2022-12-18T23:13:41;4.07;;;2.30;;
65049;SDS011;52090;51.224;-2.328;2022-12-18T23:17:24;3.47;;;2.13;;
65049;SDS011;52090;51.224;-2.328;2022-12-18T23:21:07;3.75;;;1.70;;
65049;SDS011;52090;51.224;-2.328;2022-12-18T23:24:52;3.25;;;1.70;;
65049;SDS011;52090;51.224;-2.328;2022-12-18T23:28:35;2.83;;;1.60;;
65049;SDS011;52090;51.224;-2.328;2022-12-18T23:32:17;3.15;;;1.88;;
65049;SDS011;52090;51.224;-2.328;2022-12-18T23:35:59;3.85;;;2.20;;
65049;SDS011;52090;51.224;-2.328;2022-12-18T23:39:42;3.80;;;1.90;;
65049;SDS011;52090;51.224;-2.328;2022-12-18T23:43:24;2.88;;;1.63;;
65049;SDS011;52090;51.224;-2.328;2022-12-18T23:47:06;2.37;;;1.50;;
65049;SDS011;52090;51.224;-2.328;2022-12-18T23:50:48;6.85;;;3.85;;
65049;SDS011;52090;51.224;-2.328;2022-12-18T23:54:30;4.78;;;3.13;;
65049;SDS011;52090;51.224;-2.328;2022-12-18T23:58:14;5.10;;;2.58;;
